Nevskiy-22 — UFSO — position and weather

sailwx.info

Track history (hours):
 
Tides and Currents Weather Stations Pressure Air Temp Water Temp Dewpoint Dewpoint Depression Visibility Wind Speed Wind Dir Waves Ship Positions

Nevskiy-22

Last reported at 2015-Aug-29 14:33 UTC. Time now 2015-Aug-30 03:35 UTC.
Position N 59°59' E 029°45'.

Length 111 m; draft 2.4 m.

Type: Cargo ship. MMSI: 273449940.

Date/timePositionNaut miles runAvg speedWind from/ knotsBaromVisibWave heightAir tempDewpointWater temp
2015-Aug-29 14:33N 59°59' E 029°45'7 7.4
2015-Aug-29 13:33N 59°56' E 029°59'7 7.3
2015-Aug-29 12:33N 59°58' E 030°12'6 6.0
2015-Aug-29 11:32N 59°56' E 030°24'1 0.1
2015-Aug-28 16:33N 59°55' E 030°24'3 3.4
2015-Aug-28 15:33N 59°57' E 030°19'2 1.8
2015-Aug-28 14:33N 59°57' E 030°15'1 0.8
2015-Aug-28 13:33N 59°58' E 030°14'7 7.1
2015-Aug-28 12:33N 59°55' E 030°01'8 7.7
2015-Aug-28 11:32N 59°58' E 029°46'6 0.4
2015-Aug-27 22:20N 60°00' E 029°35'6 7.8
2015-Aug-27 21:33N 59°58' E 029°47'8 7.9
2015-Aug-27 20:33N 59°55' E 030°01'8 7.7
2015-Aug-27 19:33N 59°57' E 030°16'4 0.2
2015-Aug-27 02:27N 59°56' E 030°24'3 3.6
2015-Aug-27 01:33N 59°57' E 030°18'1 1.4
2015-Aug-27 00:33N 59°57' E 030°15'0 0.0
2015-Aug-26 23:33N 59°57' E 030°15'0 0.1
2015-Aug-26 22:33N 59°58' E 030°15'6 5.6
2015-Aug-26 21:33N 59°56' E 030°04'6 5.5
2015-Aug-26 20:33N 59°57' E 029°53'14 1.0
2015-Aug-26 07:05N 60°00' E 029°26'7 8.2
2015-Aug-26 06:17N 59°60' E 029°39'6 7.7
2015-Aug-26 05:33N 59°57' E 029°50'7 7.1
2015-Aug-26 04:33N 59°56' E 030°03'7 6.8
2015-Aug-26 03:33N 59°57' E 030°17'6 0.9
2015-Aug-25 21:23N 59°54' E 030°26'4 4.5
2015-Aug-25 20:32N 59°57' E 030°23'4 4.3
2015-Aug-25 19:33N 59°58' E 030°14'7 6.6
2015-Aug-25 18:33N 59°56' E 030°02'7 6.7
2015-Aug-25 17:32N 59°58' E 029°49'15 1.3
2015-Aug-25 05:17N 60°00' E 029°18'6 7.9
2015-Aug-25 04:31N 60°00' E 029°30'8 8.1
2015-Aug-25 03:33N 59°59' E 029°46'8 7.8
2015-Aug-25 02:33N 59°55' E 030°00'8 8.4
2015-Aug-25 01:33N 59°57' E 030°16'4 0.6
2015-Aug-24 19:32N 59°56' E 030°24'4 3.8
2015-Aug-24 18:33N 59°57' E 030°17'5 5.4
2015-Aug-24 17:33N 59°57' E 030°06'4 4.2
2015-Aug-24 16:33N 59°55' E 029°58'1 0.9
2015-Aug-24 15:32N 59°56' E 029°56'6 6.4
2015-Aug-24 14:33N 59°59' E 029°45'1 0.1
2015-Aug-24 00:32N 59°59' E 029°42'8 7.7
2015-Aug-23 23:33N 59°56' E 029°56'7 7.2
2015-Aug-23 22:33N 59°57' E 030°10'7 6.9
2015-Aug-23 21:32N 59°57' E 030°24'3 0.7
2015-Aug-23 17:05N 59°54' E 030°26'3 5.1
2015-Aug-23 16:33N 59°57' E 030°24'4 4.5
2015-Aug-23 15:33N 59°57' E 030°15'6 6.4
2015-Aug-23 14:33N 59°56' E 030°03'7 7.2
2015-Aug-23 13:33N 59°58' E 029°49'32 2.9
2015-Aug-23 02:32N 60°00' E 028°46'9 8.7
2015-Aug-23 01:33N 60°00' E 029°03'8 8.5
2015-Aug-23 00:33N 60°00' E 029°20'8 8.2
2015-Aug-22 23:33N 59°60' E 029°37'8 7.6
2015-Aug-22 22:33N 59°57' E 029°51'8 7.6
2015-Aug-22 21:33N 59°57' E 030°06'7 7.1
2015-Aug-22 20:33N 59°57' E 030°20'4 1.2
2015-Aug-22 17:32N 59°54' E 030°25'4 3.9
2015-Aug-22 16:33N 59°57' E 030°20'5 5.1
2015-Aug-22 15:33N 59°57' E 030°10'7 6.6
2015-Aug-22 14:33N 59°56' E 029°57'7 7.1
2015-Aug-22 13:33N 59°59' E 029°44'7 7.3
2015-Aug-22 12:33N 59°60' E 029°29'9 8.3
2015-Aug-22 11:27N 59°60' E 029°11'26 5.1
2015-Aug-22 06:25N 59°59' E 028°20'0 0.1
2015-Aug-22 05:18N 59°59' E 028°20'16 7.6
2015-Aug-22 03:14N 60°00' E 028°51'6 8.4
2015-Aug-22 02:33N 60°00' E 029°03'10 8.2
2015-Aug-22 01:19N 60°00' E 029°23'9 8.1
2015-Aug-22 00:12N 59°60' E 029°41'6 9.3
2015-Aug-21 23:33N 59°57' E 029°52'8 7.5
2015-Aug-21 22:33N 59°57' E 030°07'7 7.4
2015-Aug-21 21:33N 59°57' E 030°22'3 0.5
2015-Aug-21 15:11N 59°54' E 030°26'3 4.9
2015-Aug-21 14:33N 59°57' E 030°24'5 4.8
2015-Aug-21 13:33N 59°58' E 030°14'6 6.2
2015-Aug-21 12:32N 59°56' E 030°02'7 6.8
2015-Aug-21 11:33N 59°57' E 029°49'7 6.7
2015-Aug-21 10:33N 59°60' E 029°37'38 7.4
2015-Aug-21 05:28N 59°58' E 028°22'1 0.7
2015-Aug-21 04:33N 59°58' E 028°21'13 4.3
2015-Aug-21 01:33N 59°60' E 028°46'16 7.9
2015-Aug-20 23:30N 60°00' E 029°18'9 7.6
2015-Aug-20 22:17N 59°60' E 029°37'8 8.7
2015-Aug-20 21:23N 59°57' E 029°51'6 7.7
2015-Aug-20 20:33N 59°56' E 030°04'6 5.7
2015-Aug-20 19:33N 59°57' E 030°15'0 0.4
2015-Aug-20 18:33N 59°57' E 030°16'6 5.9
2015-Aug-20 17:30N 59°54' E 030°26'1 0.2
2015-Aug-20 13:30N 59°55' E 030°25'4 3.8
2015-Aug-20 12:33N 59°57' E 030°20'2 2.0
2015-Aug-20 11:33N 59°57' E 030°16'6 5.8
2015-Aug-20 10:33N 59°56' E 030°04'7 6.7
2015-Aug-20 09:33N 59°57' E 029°51'7 6.8
2015-Aug-20 08:29N 59°60' E 029°38'5 0.5
2015-Aug-19 21:16N 60°00' E 029°28'7 8.3
2015-Aug-19 20:25N 59°59' E 029°42'7 8.4
2015-Aug-19 19:33N 59°56' E 029°55'8 8.1
2015-Aug-19 18:33N 59°53' E 030°10'2 2.3
2015-Aug-19 17:33N 59°52' E 030°13'0 0.0
2015-Aug-19 16:33N 59°52' E 030°13'2 2.5
2015-Aug-19 15:33N 59°53' E 030°09'  
Track history (hours):
 
Tides and Currents Weather Stations Pressure Air Temp Water Temp Dewpoint Dewpoint Depression Visibility Wind Speed Wind Dir Waves Ship Positions

Nevskiy-22

Last reported at 2015-Aug-29 14:33 UTC. Time now 2015-Aug-30 03:35 UTC.
Position N 59°59' E 029°45'.

Length 111 m; draft 2.4 m.

Type: Cargo ship. MMSI: 273449940.

Date/timePositionNaut miles runAvg speedWind from/ knotsBaromVisibWave heightAir tempDewpointWater temp
2015-Aug-29 14:33N 59°59' E 029°45'7 7.4
2015-Aug-29 13:33N 59°56' E 029°59'7 7.3
2015-Aug-29 12:33N 59°58' E 030°12'6 6.0
2015-Aug-29 11:32N 59°56' E 030°24'1 0.1
2015-Aug-28 16:33N 59°55' E 030°24'3 3.4
2015-Aug-28 15:33N 59°57' E 030°19'2 1.8
2015-Aug-28 14:33N 59°57' E 030°15'1 0.8
2015-Aug-28 13:33N 59°58' E 030°14'7 7.1
2015-Aug-28 12:33N 59°55' E 030°01'8 7.7
2015-Aug-28 11:32N 59°58' E 029°46'6 0.4
2015-Aug-27 22:20N 60°00' E 029°35'6 7.8
2015-Aug-27 21:33N 59°58' E 029°47'8 7.9
2015-Aug-27 20:33N 59°55' E 030°01'8 7.7
2015-Aug-27 19:33N 59°57' E 030°16'4 0.2
2015-Aug-27 02:27N 59°56' E 030°24'3 3.6
2015-Aug-27 01:33N 59°57' E 030°18'1 1.4
2015-Aug-27 00:33N 59°57' E 030°15'0 0.0
2015-Aug-26 23:33N 59°57' E 030°15'0 0.1
2015-Aug-26 22:33N 59°58' E 030°15'6 5.6
2015-Aug-26 21:33N 59°56' E 030°04'6 5.5
2015-Aug-26 20:33N 59°57' E 029°53'14 1.0
2015-Aug-26 07:05N 60°00' E 029°26'7 8.2
2015-Aug-26 06:17N 59°60' E 029°39'6 7.7
2015-Aug-26 05:33N 59°57' E 029°50'7 7.1
2015-Aug-26 04:33N 59°56' E 030°03'7 6.8
2015-Aug-26 03:33N 59°57' E 030°17'6 0.9
2015-Aug-25 21:23N 59°54' E 030°26'4 4.5
2015-Aug-25 20:32N 59°57' E 030°23'4 4.3
2015-Aug-25 19:33N 59°58' E 030°14'7 6.6
2015-Aug-25 18:33N 59°56' E 030°02'7 6.7
2015-Aug-25 17:32N 59°58' E 029°49'15 1.3
2015-Aug-25 05:17N 60°00' E 029°18'6 7.9
2015-Aug-25 04:31N 60°00' E 029°30'8 8.1
2015-Aug-25 03:33N 59°59' E 029°46'8 7.8
2015-Aug-25 02:33N 59°55' E 030°00'8 8.4
2015-Aug-25 01:33N 59°57' E 030°16'4 0.6
2015-Aug-24 19:32N 59°56' E 030°24'4 3.8
2015-Aug-24 18:33N 59°57' E 030°17'5 5.4
2015-Aug-24 17:33N 59°57' E 030°06'4 4.2
2015-Aug-24 16:33N 59°55' E 029°58'1 0.9
2015-Aug-24 15:32N 59°56' E 029°56'6 6.4
2015-Aug-24 14:33N 59°59' E 029°45'1 0.1
2015-Aug-24 00:32N 59°59' E 029°42'8 7.7
2015-Aug-23 23:33N 59°56' E 029°56'7 7.2
2015-Aug-23 22:33N 59°57' E 030°10'7 6.9
2015-Aug-23 21:32N 59°57' E 030°24'3 0.7
2015-Aug-23 17:05N 59°54' E 030°26'3 5.1
2015-Aug-23 16:33N 59°57' E 030°24'4 4.5
2015-Aug-23 15:33N 59°57' E 030°15'6 6.4
2015-Aug-23 14:33N 59°56' E 030°03'7 7.2
2015-Aug-23 13:33N 59°58' E 029°49'32 2.9
2015-Aug-23 02:32N 60°00' E 028°46'9 8.7
2015-Aug-23 01:33N 60°00' E 029°03'8 8.5
2015-Aug-23 00:33N 60°00' E 029°20'8 8.2
2015-Aug-22 23:33N 59°60' E 029°37'8 7.6
2015-Aug-22 22:33N 59°57' E 029°51'8 7.6
2015-Aug-22 21:33N 59°57' E 030°06'7 7.1
2015-Aug-22 20:33N 59°57' E 030°20'4 1.2
2015-Aug-22 17:32N 59°54' E 030°25'4 3.9
2015-Aug-22 16:33N 59°57' E 030°20'5 5.1
2015-Aug-22 15:33N 59°57' E 030°10'7 6.6
2015-Aug-22 14:33N 59°56' E 029°57'7 7.1
2015-Aug-22 13:33N 59°59' E 029°44'7 7.3
2015-Aug-22 12:33N 59°60' E 029°29'9 8.3
2015-Aug-22 11:27N 59°60' E 029°11'26 5.1
2015-Aug-22 06:25N 59°59' E 028°20'0 0.1
2015-Aug-22 05:18N 59°59' E 028°20'16 7.6
2015-Aug-22 03:14N 60°00' E 028°51'6 8.4
2015-Aug-22 02:33N 60°00' E 029°03'10 8.2
2015-Aug-22 01:19N 60°00' E 029°23'9 8.1
2015-Aug-22 00:12N 59°60' E 029°41'6 9.3
2015-Aug-21 23:33N 59°57' E 029°52'8 7.5
2015-Aug-21 22:33N 59°57' E 030°07'7 7.4
2015-Aug-21 21:33N 59°57' E 030°22'3 0.5
2015-Aug-21 15:11N 59°54' E 030°26'3 4.9
2015-Aug-21 14:33N 59°57' E 030°24'5 4.8
2015-Aug-21 13:33N 59°58' E 030°14'6 6.2
2015-Aug-21 12:32N 59°56' E 030°02'7 6.8
2015-Aug-21 11:33N 59°57' E 029°49'7 6.7
2015-Aug-21 10:33N 59°60' E 029°37'38 7.4
2015-Aug-21 05:28N 59°58' E 028°22'1 0.7
2015-Aug-21 04:33N 59°58' E 028°21'13 4.3
2015-Aug-21 01:33N 59°60' E 028°46'16 7.9
2015-Aug-20 23:30N 60°00' E 029°18'9 7.6
2015-Aug-20 22:17N 59°60' E 029°37'8 8.7
2015-Aug-20 21:23N 59°57' E 029°51'6 7.7
2015-Aug-20 20:33N 59°56' E 030°04'6 5.7
2015-Aug-20 19:33N 59°57' E 030°15'0 0.4
2015-Aug-20 18:33N 59°57' E 030°16'6 5.9
2015-Aug-20 17:30N 59°54' E 030°26'1 0.2
2015-Aug-20 13:30N 59°55' E 030°25'4 3.8
2015-Aug-20 12:33N 59°57' E 030°20'2 2.0
2015-Aug-20 11:33N 59°57' E 030°16'6 5.8
2015-Aug-20 10:33N 59°56' E 030°04'7 6.7
2015-Aug-20 09:33N 59°57' E 029°51'7 6.8
2015-Aug-20 08:29N 59°60' E 029°38'5 0.5
2015-Aug-19 21:16N 60°00' E 029°28'7 8.3
2015-Aug-19 20:25N 59°59' E 029°42'7 8.4
2015-Aug-19 19:33N 59°56' E 029°55'8 8.1
2015-Aug-19 18:33N 59°53' E 030°10'2 2.3
2015-Aug-19 17:33N 59°52' E 030°13'0 0.0
2015-Aug-19 16:33N 59°52' E 030°13'2 2.5
2015-Aug-19 15:33N 59°53' E 030°09'  

Dump ship's entire track history